createdAt,value
2022-12-29T00:00:26.922Z,100441.31
2022-12-29T00:02:29.182Z,100444.88
2022-12-29T00:04:31.675Z,100452.84
2022-12-29T00:06:34.360Z,100451.09
2022-12-29T00:08:42.637Z,100456.44
2022-12-29T00:10:45.029Z,100452.84
2022-12-29T00:13:05.447Z,100455.50
2022-12-29T00:15:26.308Z,100456.38
2022-12-29T00:17:28.417Z,100453.72
2022-12-29T00:19:49.121Z,100455.50
2022-12-29T00:22:09.654Z,100455.53
2022-12-29T00:24:27.421Z,100460.84
2022-12-29T00:26:49.883Z,100456.44
2022-12-29T00:29:10.929Z,100444.88
2022-12-29T00:31:32.101Z,100443.97
2022-12-29T00:33:53.325Z,100446.66
2022-12-29T00:36:01.844Z,100442.22
2022-12-29T00:38:35.077Z,100436.00
2022-12-29T00:40:59.054Z,100434.22
2022-12-29T00:43:19.705Z,100438.66
2022-12-29T00:45:22.048Z,100434.22
2022-12-29T00:47:24.140Z,100436.00
2022-12-29T00:49:34.925Z,100434.22
2022-12-29T00:51:36.947Z,100452.84
2022-12-29T00:53:39.069Z,100451.97
2022-12-29T00:55:41.510Z,100447.50
2022-12-29T00:57:43.527Z,100446.59
2022-12-29T00:59:46.390Z,100448.38
2022-12-29T01:01:53.543Z,100444.84
2022-12-29T01:04:00.259Z,100440.41
2022-12-29T01:06:08.749Z,100438.63
2022-12-29T01:08:12.942Z,100433.31
2022-12-29T01:10:16.293Z,100431.53
2022-12-29T01:12:38.585Z,100421.78
2022-12-29T01:14:40.708Z,100419.16
2022-12-29T01:16:42.795Z,100420.06
2022-12-29T01:18:45.320Z,100412.94
2022-12-29T01:20:47.394Z,100411.19
2022-12-29T01:22:49.349Z,100410.25
2022-12-29T01:24:55.027Z,100409.38
2022-12-29T01:26:56.959Z,100407.59
2022-12-29T01:28:58.931Z,100397.84
2022-12-29T01:31:02.740Z,100399.63
2022-12-29T01:33:04.811Z,100397.88
2022-12-29T01:35:07.221Z,100400.50
2022-12-29T01:37:10.753Z,100396.09
2022-12-29T01:39:13.283Z,100393.41
2022-12-29T01:41:17.693Z,100396.94
2022-12-29T01:43:21.155Z,100390.75
2022-12-29T01:45:23.292Z,100389.88
2022-12-29T01:47:46.335Z,100389.84
2022-12-29T01:49:48.869Z,100384.53
2022-12-29T01:52:00.581Z,100382.78
2022-12-29T01:54:06.387Z,100374.78
2022-12-29T01:56:13.813Z,100378.31
2022-12-29T01:58:20.428Z,100385.41
2022-12-29T02:00:22.965Z,100383.66
2022-12-29T02:02:26.120Z,100379.22
2022-12-29T02:04:32.580Z,100374.81
2022-12-29T02:06:43.200Z,100380.13
2022-12-29T02:08:48.478Z,100368.59
2022-12-29T02:10:50.585Z,100367.75
2022-12-29T02:12:53.941Z,100365.97
2022-12-29T02:15:01.636Z,100362.41
2022-12-29T02:17:28.453Z,100371.28
2022-12-29T02:19:46.456Z,100368.59
2022-12-29T02:22:20.629Z,100373.94
2022-12-29T02:25:07.696Z,100371.25
2022-12-29T02:27:27.738Z,100365.97
2022-12-29T02:29:35.835Z,100373.94
2022-12-29T02:32:00.116Z,100368.59
2022-12-29T02:34:23.347Z,100369.47
2022-12-29T02:36:36.635Z,100364.16
2022-12-29T02:38:44.441Z,100361.50
2022-12-29T02:40:59.417Z,100365.97
2022-12-29T02:43:08.247Z,100358.84
2022-12-29T02:45:22.448Z,100367.75
2022-12-29T02:47:47.362Z,100367.72
2022-12-29T02:49:54.759Z,100373.06
2022-12-29T02:52:17.910Z,100373.97
2022-12-29T02:54:39.320Z,100374.88
2022-12-29T02:56:43.209Z,100376.63
2022-12-29T02:58:46.361Z,100373.97
2022-12-29T03:00:57.759Z,100381.94
2022-12-29T03:03:20.068Z,100377.53
2022-12-29T03:05:43.098Z,100373.06
2022-12-29T03:07:59.846Z,100375.72
2022-12-29T03:10:33.109Z,100377.50
2022-12-29T03:13:12.684Z,100375.72
2022-12-29T03:15:59.551Z,100381.94
2022-12-29T03:18:22.920Z,100389.03
2022-12-29T03:20:33.025Z,100385.47
2022-12-29T03:22:40.962Z,100369.50
2022-12-29T03:24:50.675Z,100369.50
2022-12-29T03:26:57.717Z,100373.03
2022-12-29T03:29:04.998Z,100379.25
2022-12-29T03:31:09.416Z,100373.06
2022-12-29T03:33:15.787Z,100369.50
2022-12-29T03:35:22.169Z,100365.06
2022-12-29T03:37:29.956Z,100364.19
2022-12-29T03:39:33.866Z,100363.31
2022-12-29T03:41:37.718Z,100363.31
2022-12-29T03:43:39.710Z,100357.13
2022-12-29T03:45:42.352Z,100362.41
2022-12-29T03:47:45.389Z,100358.00
2022-12-29T03:49:48.668Z,100354.44
2022-12-29T03:51:52.068Z,100355.34
2022-12-29T03:53:55.266Z,100350.00
2022-12-29T03:55:57.644Z,100350.91
2022-12-29T03:58:00.339Z,100351.78
2022-12-29T04:00:20.911Z,100358.03
2022-12-29T04:02:25.836Z,100358.91
2022-12-29T04:04:29.113Z,100356.25
2022-12-29T04:06:33.895Z,100356.22
2022-12-29T04:08:39.774Z,100349.16
2022-12-29T04:10:42.817Z,100353.56
2022-12-29T04:12:46.910Z,100350.91
2022-12-29T04:14:50.044Z,100347.38
2022-12-29T04:16:53.524Z,100353.59
2022-12-29T04:18:55.805Z,100359.78
2022-12-29T04:21:01.837Z,100357.13
2022-12-29T04:23:06.452Z,100361.53
2022-12-29T04:25:10.390Z,100357.09
2022-12-29T04:27:14.204Z,100357.13
2022-12-29T04:29:50.830Z,100350.00
2022-12-29T04:32:22.139Z,100351.78
2022-12-29T04:34:28.477Z,100354.47
2022-12-29T04:36:31.117Z,100344.69
2022-12-29T04:38:33.824Z,100354.44
2022-12-29T04:40:43.964Z,100351.78
2022-12-29T04:42:46.547Z,100352.66
2022-12-29T04:44:48.825Z,100352.69
2022-12-29T04:47:24.878Z,100348.25
2022-12-29T04:49:58.121Z,100356.19
2022-12-29T04:52:09.564Z,100357.13
2022-12-29T04:54:13.072Z,100353.56
2022-12-29T04:56:15.839Z,100354.44
2022-12-29T04:58:22.803Z,100358.88
2022-12-29T05:00:26.546Z,100355.34
2022-12-29T05:02:31.815Z,100358.88
2022-12-29T05:04:34.384Z,100355.31
2022-12-29T05:06:36.453Z,100350.03
2022-12-29T05:08:38.642Z,100359.78
2022-12-29T05:10:41.500Z,100356.22
2022-12-29T05:12:47.310Z,100352.66
2022-12-29T05:14:50.078Z,100349.13
2022-12-29T05:16:52.339Z,100349.13
2022-12-29T05:18:55.044Z,100353.56
2022-12-29T05:20:57.554Z,100357.09
2022-12-29T05:22:59.680Z,100356.22
2022-12-29T05:26:01.101Z,100359.75
2022-12-29T05:28:08.595Z,100354.44
2022-12-29T05:30:18.014Z,100356.22
2022-12-29T05:32:20.524Z,100352.66
2022-12-29T05:38:15.479Z,100344.72
2022-12-29T05:40:20.146Z,100345.59
2022-12-29T05:42:23.128Z,100344.72
2022-12-29T05:44:37.532Z,100339.38
2022-12-29T05:46:48.934Z,100332.28
2022-12-29T05:49:08.922Z,100337.63
2022-12-29T05:51:25.827Z,100338.50
2022-12-29T05:53:29.452Z,100338.50
2022-12-29T05:55:32.595Z,100342.94
2022-12-29T05:57:35.726Z,100345.59
2022-12-29T05:59:49.491Z,100344.69
2022-12-29T06:01:51.742Z,100341.16
2022-12-29T06:03:54.363Z,100350.88
2022-12-29T06:05:56.786Z,100346.47
2022-12-29T06:07:58.994Z,100344.69
2022-12-29T06:10:01.101Z,100338.50
2022-12-29T06:12:08.166Z,100343.81
2022-12-29T06:14:10.859Z,100340.28
2022-12-29T06:16:13.148Z,100342.91
2022-12-29T06:18:19.872Z,100346.47
2022-12-29T06:20:23.048Z,100338.50
2022-12-29T06:22:25.346Z,100342.03
2022-12-29T06:24:27.372Z,100353.56
2022-12-29T06:26:30.439Z,100358.91
2022-12-29T06:28:32.814Z,100358.00
2022-12-29T06:30:34.988Z,100351.81
2022-12-29T06:32:38.119Z,100354.47
2022-12-29T06:34:43.234Z,100358.00
2022-12-29T06:36:45.290Z,100358.91
2022-12-29T06:38:47.549Z,100354.47
2022-12-29T06:40:49.547Z,100351.81
2022-12-29T06:43:00.785Z,100349.16
2022-12-29T06:45:16.762Z,100350.03
2022-12-29T06:47:19.815Z,100345.59
2022-12-29T06:49:22.249Z,100339.41
2022-12-29T06:51:27.635Z,100347.38
2022-12-29T06:53:29.733Z,100353.59
2022-12-29T06:55:34.474Z,100355.34
2022-12-29T06:57:36.528Z,100358.88
2022-12-29T06:59:38.616Z,100356.19
2022-12-29T07:01:40.714Z,100352.66
2022-12-29T07:03:44.435Z,100353.53
2022-12-29T07:05:46.291Z,100352.63
2022-12-29T07:07:48.359Z,100348.19
2022-12-29T07:09:50.288Z,100346.38
2022-12-29T07:11:52.357Z,100348.16
2022-12-29T07:13:54.756Z,100350.84
2022-12-29T07:15:56.988Z,100349.94
2022-12-29T07:17:58.838Z,100340.16
2022-12-29T07:20:01.092Z,100344.56
2022-12-29T07:22:03.197Z,100353.44
2022-12-29T07:24:05.923Z,100349.84
2022-12-29T07:26:10.911Z,100356.06
2022-12-29T07:28:14.168Z,100348.88
2022-12-29T07:30:16.431Z,100348.88
2022-12-29T07:32:19.769Z,100350.63
2022-12-29T07:34:21.924Z,100353.25
2022-12-29T07:36:27.991Z,100346.09
2022-12-29T07:38:32.982Z,100341.59
2022-12-29T07:40:35.791Z,100348.75
2022-12-29T07:42:38.109Z,100339.81
2022-12-29T07:44:43.509Z,100344.22
2022-12-29T07:46:54.558Z,100340.63
2022-12-29T07:48:59.299Z,100354.78
2022-12-29T07:51:01.526Z,100352.06
2022-12-29T07:53:04.718Z,100344.06
2022-12-29T07:55:07.442Z,100345.81
2022-12-29T07:57:09.518Z,100356.44
2022-12-29T07:59:13.254Z,100353.78
2022-12-29T08:01:15.496Z,100352.06
2022-12-29T08:03:17.694Z,100363.63
2022-12-29T08:05:20.158Z,100362.69
2022-12-29T08:07:22.512Z,100367.19
2022-12-29T08:09:24.839Z,100360.94
2022-12-29T08:11:27.003Z,100361.03
2022-12-29T08:13:28.908Z,100360.06
2022-12-29T08:15:32.730Z,100356.47
2022-12-29T08:17:35.354Z,100358.28
2022-12-29T08:19:38.405Z,100349.34
2022-12-29T08:21:40.956Z,100350.16
2022-12-29T08:23:43.107Z,100363.47
2022-12-29T08:25:45.416Z,100369.63
2022-12-29T08:27:47.706Z,100370.44
2022-12-29T08:29:49.943Z,100372.97
2022-12-29T08:31:52.069Z,100370.28
2022-12-29T08:33:54.000Z,100372.88
2022-12-29T08:36:07.034Z,100368.38
2022-12-29T08:38:08.999Z,100370.06
2022-12-29T08:40:11.495Z,100369.97
2022-12-29T08:42:13.781Z,100362.81
2022-12-29T08:44:19.031Z,100343.19
2022-12-29T08:46:21.363Z,100346.69
2022-12-29T08:48:23.662Z,100347.47
2022-12-29T08:50:25.981Z,100351.84
2022-12-29T08:52:27.999Z,100350.94
2022-12-29T08:54:30.188Z,100350.84
2022-12-29T08:56:32.942Z,100347.28
2022-12-29T08:58:37.907Z,100346.41
2022-12-29T09:00:39.826Z,100340.97
2022-12-29T09:02:42.033Z,100342.56
2022-12-29T09:04:44.108Z,100338.09
2022-12-29T09:06:46.474Z,100338.03
2022-12-29T09:08:48.988Z,100336.16
2022-12-29T09:10:51.781Z,100331.63
2022-12-29T09:12:53.681Z,100335.22
2022-12-29T09:14:56.002Z,100327.13
2022-12-29T09:17:16.422Z,100331.63
2022-12-29T09:19:18.583Z,100344.13
2022-12-29T09:21:21.488Z,100351.09
2022-12-29T09:23:45.730Z,100348.38
2022-12-29T09:25:48.771Z,100347.44
2022-12-29T09:27:53.568Z,100335.81
2022-12-29T09:29:56.636Z,100327.72
2022-12-29T09:31:58.633Z,100330.28
2022-12-29T09:34:00.850Z,100332.09
2022-12-29T09:36:03.568Z,100325.69
2022-12-29T09:38:05.820Z,100318.59
2022-12-29T09:40:19.826Z,100312.34
2022-12-29T09:42:51.833Z,100312.28
2022-12-29T09:45:06.258Z,100299.66
2022-12-29T09:47:12.931Z,100290.69
2022-12-29T09:49:21.232Z,100297.72
2022-12-29T09:51:25.645Z,100276.28
2022-12-29T09:53:35.700Z,100294.91
2022-12-29T09:55:47.176Z,100279.63
2022-12-29T09:58:01.117Z,100279.47
2022-12-29T10:00:12.676Z,100273.19
2022-12-29T10:02:35.790Z,100265.88
2022-12-29T10:04:45.679Z,100260.38
2022-12-29T10:07:29.654Z,100256.66
2022-12-29T10:09:38.327Z,100261.81
2022-12-29T10:12:11.183Z,100258.91
2022-12-29T10:14:21.896Z,100255.00
2022-12-29T10:16:45.453Z,100248.53
2022-12-29T10:19:07.311Z,100242.94
2022-12-29T10:21:12.356Z,100234.78
2022-12-29T10:23:26.776Z,100235.31
2022-12-29T10:25:35.632Z,100234.09
2022-12-29T10:27:38.476Z,100228.50
2022-12-29T10:29:53.458Z,100233.59
2022-12-29T10:32:07.303Z,100227.22
2022-12-29T10:34:23.671Z,100231.41
2022-12-29T10:36:31.385Z,100239.34
2022-12-29T10:38:48.497Z,100232.94
2022-12-29T10:41:06.712Z,100233.81
2022-12-29T10:43:27.315Z,100230.22
2022-12-29T10:45:33.153Z,100226.63
2022-12-29T10:47:43.104Z,100218.38
2022-12-29T10:49:48.544Z,100223.72
2022-12-29T10:51:53.239Z,100221.75
2022-12-29T10:54:12.511Z,100220.59
2022-12-29T10:56:26.530Z,100216.59
2022-12-29T10:58:31.518Z,100217.25
2022-12-29T11:00:34.886Z,100217.03
2022-12-29T11:02:46.235Z,100211.34
2022-12-29T11:05:06.579Z,100217.22
2022-12-29T11:07:15.604Z,100210.53
2022-12-29T11:09:41.565Z,100215.56
2022-12-29T11:11:44.875Z,100213.50
2022-12-29T11:13:51.135Z,100207.91
2022-12-29T11:15:53.663Z,100205.88
2022-12-29T11:18:00.679Z,100202.16
2022-12-29T11:20:30.198Z,100195.75
2022-12-29T11:22:38.454Z,100199.06
2022-12-29T11:24:48.324Z,100202.50
2022-12-29T11:26:54.333Z,100198.75
2022-12-29T11:29:18.174Z,100192.41
2022-12-29T11:31:23.220Z,100199.47
2022-12-29T11:33:29.136Z,100192.22
2022-12-29T11:35:37.994Z,100196.66
2022-12-29T11:37:44.778Z,100185.75
2022-12-29T11:39:58.655Z,100181.06
2022-12-29T11:42:03.819Z,100169.19
2022-12-29T11:44:10.336Z,100174.41
2022-12-29T11:46:27.029Z,100171.72
2022-12-29T11:48:33.503Z,100175.22
2022-12-29T11:50:40.326Z,100174.06
2022-12-29T11:52:43.569Z,100178.63
2022-12-29T11:54:45.552Z,100174.91
2022-12-29T11:56:48.241Z,100186.56
2022-12-29T11:58:51.599Z,100179.44
2022-12-29T12:00:53.908Z,100172.09
2022-12-29T12:03:01.873Z,100181.06
2022-12-29T12:05:12.643Z,100173.94
2022-12-29T12:07:38.151Z,100171.19
2022-12-29T12:09:50.367Z,100161.31
2022-12-29T12:11:56.766Z,100157.75
2022-12-29T12:13:58.876Z,100152.13
2022-12-29T12:16:15.464Z,100158.44
2022-12-29T12:18:32.684Z,100153.81
2022-12-29T12:20:51.314Z,100144.63
2022-12-29T12:23:20.176Z,100154.38
2022-12-29T12:25:32.200Z,100156.00
2022-12-29T12:27:41.308Z,100156.78
2022-12-29T12:30:07.030Z,100142.22
2022-12-29T12:32:44.243Z,100132.44
2022-12-29T12:34:49.022Z,100128.25
2022-12-29T12:36:57.542Z,100137.91
2022-12-29T12:39:09.995Z,100132.56
2022-12-29T12:41:21.931Z,100127.13
2022-12-29T12:44:01.401Z,100125.34
2022-12-29T12:46:37.541Z,100113.69
2022-12-29T12:49:02.699Z,100116.34
2022-12-29T12:51:24.792Z,100115.63
2022-12-29T12:53:33.136Z,100114.66
2022-12-29T12:55:57.385Z,100115.41
2022-12-29T12:58:11.731Z,100111.00
2022-12-29T13:00:20.935Z,100106.41
2022-12-29T13:02:47.575Z,100109.09
2022-12-29T13:05:06.623Z,100110.78
2022-12-29T13:07:19.406Z,100109.78
2022-12-29T13:09:32.939Z,100107.25
2022-12-29T13:12:00.995Z,100114.56
2022-12-29T13:14:37.004Z,100107.47
2022-12-29T13:16:55.011Z,100111.78
2022-12-29T13:19:12.151Z,100119.75
2022-12-29T13:21:40.574Z,100117.97
2022-12-29T13:23:56.288Z,100108.09
2022-12-29T13:26:37.221Z,100113.53
2022-12-29T13:29:35.046Z,100117.09
2022-12-29T13:31:42.358Z,100118.34
2022-12-29T13:34:17.775Z,100120.03
2022-12-29T13:40:20.028Z,100120.91
2022-12-29T13:42:24.088Z,100109.28
2022-12-29T13:44:50.093Z,100107.72
2022-12-29T13:46:53.100Z,100102.22
2022-12-29T13:49:20.330Z,100118.50
2022-12-29T13:51:27.951Z,100105.88
2022-12-29T13:53:55.916Z,100104.25
2022-12-29T13:56:32.391Z,100110.44
2022-12-29T13:58:58.739Z,100114.09
2022-12-29T14:01:09.220Z,100107.00
2022-12-29T14:03:45.409Z,100117.81
2022-12-29T14:06:06.096Z,100120.59
2022-12-29T14:08:18.065Z,100118.03
2022-12-29T14:10:29.689Z,100117.31
2022-12-29T14:12:46.124Z,100112.00
2022-12-29T14:14:48.701Z,100116.53
2022-12-29T14:16:51.347Z,100112.91
2022-12-29T14:18:55.374Z,100101.56
2022-12-29T14:21:08.470Z,100090.81
2022-12-29T14:23:10.545Z,100090.97
2022-12-29T14:26:01.626Z,100082.28
2022-12-29T14:28:24.006Z,100091.22
2022-12-29T14:30:49.717Z,100083.38
2022-12-29T14:33:15.711Z,100087.97
2022-12-29T14:35:40.594Z,100087.06
2022-12-29T14:37:42.642Z,100091.38
2022-12-29T14:39:46.196Z,100089.75
2022-12-29T14:41:48.504Z,100089.78
2022-12-29T14:44:18.843Z,100088.84
2022-12-29T14:46:21.401Z,100092.53
2022-12-29T14:48:44.771Z,100085.34
2022-12-29T14:50:47.648Z,100078.41
2022-12-29T14:53:03.145Z,100076.59
2022-12-29T14:55:18.777Z,100067.72
2022-12-29T14:57:27.092Z,100068.53
2022-12-29T14:59:33.478Z,100069.59
2022-12-29T15:01:52.330Z,100073.31
2022-12-29T15:04:04.653Z,100072.56
2022-12-29T15:06:17.828Z,100071.94
2022-12-29T15:08:31.249Z,100065.84
2022-12-29T15:10:40.842Z,100070.28
2022-12-29T15:12:52.778Z,100074.81
2022-12-29T15:14:58.054Z,100075.72
2022-12-29T15:17:01.135Z,100073.78
2022-12-29T15:19:03.976Z,100067.66
2022-12-29T15:21:07.915Z,100071.09
2022-12-29T15:23:13.242Z,100071.22
2022-12-29T15:25:19.012Z,100075.72
2022-12-29T15:27:26.542Z,100069.63
2022-12-29T15:29:45.916Z,100072.91
2022-12-29T15:31:49.943Z,100069.09
2022-12-29T15:33:54.444Z,100073.56
2022-12-29T15:35:58.614Z,100072.50
2022-12-29T15:38:01.143Z,100070.63
2022-12-29T15:40:22.440Z,100072.44
2022-12-29T15:42:52.401Z,100069.09
2022-12-29T15:45:09.275Z,100071.56
2022-12-29T15:47:22.920Z,100057.34
2022-12-29T15:49:30.471Z,100058.06
2022-12-29T15:51:39.660Z,100052.84
2022-12-29T15:53:41.732Z,100059.63
2022-12-29T15:55:45.360Z,100049.69
2022-12-29T15:57:47.581Z,100057.78
2022-12-29T15:59:49.810Z,100051.53
2022-12-29T16:01:52.480Z,100056.00
2022-12-29T16:03:55.698Z,100048.53
2022-12-29T16:06:09.292Z,100049.28
2022-12-29T16:08:41.290Z,100052.13
2022-12-29T16:10:44.459Z,100058.31
2022-12-29T16:12:46.542Z,100061.66
2022-12-29T16:14:54.417Z,100066.03
2022-12-29T16:17:00.592Z,100066.16
2022-12-29T16:19:25.992Z,100060.66
2022-12-29T16:21:31.165Z,100055.13
2022-12-29T16:23:37.509Z,100058.69
2022-12-29T16:25:42.063Z,100062.44
2022-12-29T16:27:45.148Z,100057.25
2022-12-29T16:29:50.882Z,100066.28
2022-12-29T16:32:06.737Z,100070.19
2022-12-29T16:34:26.262Z,100074.75
2022-12-29T16:36:34.684Z,100068.56
2022-12-29T16:38:36.748Z,100080.34
2022-12-29T16:40:42.233Z,100072.50
2022-12-29T16:42:50.592Z,100078.03
2022-12-29T16:45:21.952Z,100079.16
2022-12-29T16:47:24.802Z,100083.56
2022-12-29T16:49:28.182Z,100082.56
2022-12-29T16:51:33.371Z,100086.13
2022-12-29T16:53:43.984Z,100090.44
2022-12-29T16:55:53.737Z,100086.72
2022-12-29T16:58:00.439Z,100087.50
2022-12-29T17:00:07.836Z,100084.69
2022-12-29T17:02:23.076Z,100086.38
2022-12-29T17:04:25.393Z,100070.06
2022-12-29T17:06:27.632Z,100083.44
2022-12-29T17:08:29.582Z,100080.72
2022-12-29T17:10:52.930Z,100066.44
2022-12-29T17:12:55.536Z,100074.50
2022-12-29T17:15:13.724Z,100069.13
2022-12-29T17:17:25.526Z,100054.84
2022-12-29T17:19:36.155Z,100055.78
2022-12-29T17:21:38.261Z,100053.84
2022-12-29T17:23:40.186Z,100052.94
2022-12-29T17:25:42.691Z,100050.13
2022-12-29T17:27:55.418Z,100048.47
2022-12-29T17:30:04.999Z,100050.50
2022-12-29T17:32:13.106Z,100054.03
2022-12-29T17:34:15.653Z,100047.69
2022-12-29T17:36:17.864Z,100050.44
2022-12-29T17:38:31.403Z,100037.22
2022-12-29T17:40:34.090Z,100036.19
2022-12-29T17:42:44.324Z,100042.56
2022-12-29T17:44:49.291Z,100040.63
2022-12-29T17:46:51.213Z,100036.22
2022-12-29T17:48:54.176Z,100037.09
2022-12-29T17:50:58.305Z,100030.91
2022-12-29T17:53:04.273Z,100040.81
2022-12-29T17:55:06.613Z,100033.59
2022-12-29T17:57:12.963Z,100041.56
2022-12-29T17:59:15.633Z,100033.47
2022-12-29T18:01:21.942Z,100025.28
2022-12-29T18:03:41.656Z,100027.31
2022-12-29T18:05:44.430Z,100025.34
2022-12-29T18:07:47.020Z,100025.19
2022-12-29T18:09:49.231Z,100017.81
2022-12-29T18:11:51.178Z,100026.84
2022-12-29T18:13:54.332Z,100025.00
2022-12-29T18:15:57.543Z,100026.63
2022-12-29T18:18:20.812Z,100019.66
2022-12-29T18:20:26.039Z,100023.16
2022-12-29T18:22:29.330Z,100021.91
2022-12-29T18:24:31.289Z,100017.38
2022-12-29T18:26:35.962Z,100021.81
2022-12-29T18:28:38.130Z,100016.50
2022-12-29T18:30:40.394Z,100024.56
2022-12-29T18:32:42.827Z,100028.25
2022-12-29T18:34:45.380Z,100026.31
2022-12-29T18:36:47.797Z,100015.50
2022-12-29T18:38:56.162Z,100017.28
2022-12-29T18:41:00.320Z,100025.22
2022-12-29T18:43:03.442Z,100018.91
2022-12-29T18:45:26.003Z,100017.13
2022-12-29T18:47:28.087Z,100023.38
2022-12-29T18:49:30.435Z,100023.50
2022-12-29T18:51:32.635Z,100024.56
2022-12-29T18:53:37.778Z,100023.78
2022-12-29T18:55:40.233Z,100027.63
2022-12-29T18:57:42.257Z,100028.69
2022-12-29T18:59:44.299Z,100021.72
2022-12-29T19:01:46.549Z,100031.69
2022-12-29T19:03:49.065Z,100032.50
2022-12-29T19:05:51.223Z,100038.03
2022-12-29T19:07:54.477Z,100030.97
2022-12-29T19:10:03.611Z,100036.34
2022-12-29T19:12:06.495Z,100035.50
2022-12-29T19:14:17.713Z,100040.13
2022-12-29T19:16:21.886Z,100027.31
2022-12-29T19:18:48.748Z,100027.44
2022-12-29T19:20:53.062Z,100028.38
2022-12-29T19:22:56.306Z,100026.44
2022-12-29T19:25:00.320Z,100026.56
2022-12-29T19:27:02.609Z,100016.66
2022-12-29T19:29:11.609Z,100028.38
2022-12-29T19:31:13.842Z,100029.09
2022-12-29T19:33:16.339Z,100027.31
2022-12-29T19:35:19.595Z,100023.00
2022-12-29T19:37:23.247Z,100026.41
2022-12-29T19:39:25.468Z,100035.34
2022-12-29T19:41:27.593Z,100029.09
2022-12-29T19:43:29.896Z,100040.91
2022-12-29T19:45:31.968Z,100041.91
2022-12-29T19:47:35.122Z,100040.03
2022-12-29T19:49:37.342Z,100031.94
2022-12-29T19:51:39.429Z,100018.56
2022-12-29T19:53:41.389Z,100019.31
2022-12-29T19:55:48.134Z,100018.31
2022-12-29T19:57:50.819Z,100020.09
2022-12-29T19:59:55.141Z,100019.19
2022-12-29T20:01:57.573Z,100011.16
2022-12-29T20:04:02.293Z,100019.31
2022-12-29T20:06:07.451Z,100009.41
2022-12-29T20:08:09.958Z,100013.84
2022-12-29T20:10:12.057Z,100011.25
2022-12-29T20:12:14.276Z,100000.59
2022-12-29T20:14:17.359Z,100005.84
2022-12-29T20:16:20.857Z,100002.19
2022-12-29T20:18:28.760Z,100003.06
2022-12-29T20:20:34.462Z,100005.09
2022-12-29T20:22:36.658Z,100003.28
2022-12-29T20:24:45.201Z,100009.41
2022-12-29T20:26:50.897Z,100013.97
2022-12-29T20:28:53.697Z,100011.41
2022-12-29T20:30:57.022Z,100012.31
2022-12-29T20:33:03.322Z,100008.91
2022-12-29T20:35:11.821Z,100015.03
2022-12-29T20:37:15.350Z,100022.13
2022-12-29T20:39:20.587Z,100014.19
2022-12-29T20:41:23.111Z,100022.38
2022-12-29T20:43:25.257Z,100018.81
2022-12-29T20:45:27.337Z,100014.31
2022-12-29T20:47:29.449Z,100006.28
2022-12-29T20:49:31.790Z,100009.75
2022-12-29T20:52:03.901Z,100001.09
2022-12-29T20:53:57.013Z,100003.00
2022-12-29T20:56:04.968Z,99999.47
2022-12-29T20:58:23.898Z,100003.97
2022-12-29T21:00:26.578Z,100004.09
2022-12-29T21:02:28.813Z,100004.66
2022-12-29T21:04:50.091Z,100010.63
2022-12-29T21:06:54.072Z,100017.78
2022-12-29T21:08:56.100Z,100014.16
2022-12-29T21:12:14.302Z,100018.03
2022-12-29T21:14:16.834Z,100016.84
2022-12-29T21:16:21.313Z,100033.16
2022-12-29T21:18:23.716Z,100028.81
2022-12-29T21:20:32.224Z,100019.66
2022-12-29T21:22:34.495Z,100030.25
2022-12-29T21:24:37.935Z,100029.09
2022-12-29T21:26:40.049Z,100029.13
2022-12-29T21:28:43.759Z,100028.09
2022-12-29T21:30:46.298Z,100022.47
2022-12-29T21:32:48.796Z,100021.50
2022-12-29T21:34:51.353Z,100016.25
2022-12-29T21:36:53.841Z,100029.72
2022-12-29T21:38:58.535Z,100029.88
2022-12-29T21:41:08.460Z,100028.13
2022-12-29T21:43:11.562Z,100035.91
2022-12-29T21:45:25.702Z,100043.19
2022-12-29T21:47:47.849Z,100031.38
2022-12-29T21:49:49.961Z,100037.53
2022-12-29T21:51:55.158Z,100032.22
2022-12-29T21:54:19.872Z,100027.91
2022-12-29T21:56:22.855Z,100020.78
2022-12-29T21:58:45.276Z,100026.28
2022-12-29T22:01:05.944Z,100027.34
2022-12-29T22:03:26.740Z,100029.25
2022-12-29T22:05:47.408Z,100021.44
2022-12-29T22:08:11.580Z,100018.59
2022-12-29T22:10:32.532Z,100023.72
2022-12-29T22:12:53.072Z,100019.34
2022-12-29T22:14:55.240Z,100015.00
2022-12-29T22:16:58.707Z,100012.22
2022-12-29T22:19:00.815Z,100006.09
2022-12-29T22:21:08.494Z,100009.97
2022-12-29T22:23:10.651Z,100015.31
2022-12-29T22:25:12.951Z,100015.47
2022-12-29T22:27:15.236Z,100011.94
2022-12-29T22:29:17.184Z,100012.88
2022-12-29T22:31:31.003Z,100015.84
2022-12-29T22:33:33.384Z,100022.06
2022-12-29T22:35:35.779Z,100017.59
2022-12-29T22:37:39.353Z,100024.84
2022-12-29T22:39:41.604Z,100025.06
2022-12-29T22:41:43.742Z,100018.91
2022-12-29T22:43:46.221Z,100027.00
2022-12-29T22:45:48.274Z,100024.44
2022-12-29T22:47:50.378Z,100024.44
2022-12-29T22:49:52.507Z,100020.88
2022-12-29T22:51:54.656Z,100019.09
2022-12-29T22:53:56.816Z,100017.19
2022-12-29T22:56:06.563Z,100008.28
2022-12-29T22:58:08.754Z,100016.38
2022-12-29T23:00:11.469Z,100002.94
2022-12-29T23:02:13.666Z,100007.69
2022-12-29T23:06:39.053Z,100012.19
2022-12-29T23:08:41.392Z,100020.44
2022-12-29T23:10:43.505Z,100010.72
2022-12-29T23:12:45.422Z,100019.84
2022-12-29T23:14:47.644Z,100010.88
2022-12-29T23:16:49.564Z,100013.69
2022-12-29T23:18:56.349Z,100010.09
2022-12-29T23:20:59.219Z,100013.75
2022-12-29T23:23:01.777Z,100010.16
2022-12-29T23:25:06.306Z,100004.44
2022-12-29T23:27:08.455Z,100019.72
2022-12-29T23:29:13.782Z,100017.97
2022-12-29T23:31:16.710Z,100007.13
2022-12-29T23:33:19.377Z,100009.69
2022-12-29T23:35:21.764Z,100018.38
2022-12-29T23:37:23.823Z,100012.06
2022-12-29T23:39:26.132Z,100019.31
2022-12-29T23:41:28.802Z,100013.78
2022-12-29T23:43:30.798Z,100021.78
2022-12-29T23:45:36.105Z,100021.75
2022-12-29T23:47:38.135Z,100024.41
2022-12-29T23:49:40.292Z,100028.78
2022-12-29T23:51:42.625Z,100021.75
2022-12-29T23:53:45.712Z,100025.19
2022-12-29T23:55:53.658Z,100030.56
2022-12-29T23:57:55.627Z,100022.63
2022-12-29T23:59:57.687Z,100029.66
